sensor_id;sensor_type;location;lat;lon;timestamp;temperature;humidity
12305;DHT22;6215;51.258;9.386;2022-07-22T00:00:37;19.30;99.90
12305;DHT22;6215;51.258;9.386;2022-07-22T00:03:03;19.20;99.90
12305;DHT22;6215;51.258;9.386;2022-07-22T00:05:30;19.20;99.90
12305;DHT22;6215;51.258;9.386;2022-07-22T00:07:58;19.20;99.90
12305;DHT22;6215;51.258;9.386;2022-07-22T00:10:25;19.20;99.90
12305;DHT22;6215;51.258;9.386;2022-07-22T00:12:53;19.30;99.90
12305;DHT22;6215;51.258;9.386;2022-07-22T00:15:19;19.20;99.90
12305;DHT22;6215;51.258;9.386;2022-07-22T00:17:46;19.10;99.90
12305;DHT22;6215;51.258;9.386;2022-07-22T00:20:13;19.10;99.90
12305;DHT22;6215;51.258;9.386;2022-07-22T00:22:39;19.00;99.90
12305;DHT22;6215;51.258;9.386;2022-07-22T00:25:06;19.00;99.90
12305;DHT22;6215;51.258;9.386;2022-07-22T00:27:33;19.00;99.90
12305;DHT22;6215;51.258;9.386;2022-07-22T00:30:01;19.00;99.90
12305;DHT22;6215;51.258;9.386;2022-07-22T00:32:28;19.00;99.90
12305;DHT22;6215;51.258;9.386;2022-07-22T00:34:55;19.00;99.90
12305;DHT22;6215;51.258;9.386;2022-07-22T00:37:21;19.00;99.90
12305;DHT22;6215;51.258;9.386;2022-07-22T00:39:48;18.90;99.90
12305;DHT22;6215;51.258;9.386;2022-07-22T00:42:15;19.20;99.90
12305;DHT22;6215;51.258;9.386;2022-07-22T00:44:41;19.10;99.90
12305;DHT22;6215;51.258;9.386;2022-07-22T00:47:09;19.10;99.90
12305;DHT22;6215;51.258;9.386;2022-07-22T00:49:36;19.10;99.90
12305;DHT22;6215;51.258;9.386;2022-07-22T00:52:03;18.90;99.90
12305;DHT22;6215;51.258;9.386;2022-07-22T00:54:30;19.10;99.90
12305;DHT22;6215;51.258;9.386;2022-07-22T00:56:57;19.10;99.90
12305;DHT22;6215;51.258;9.386;2022-07-22T00:59:24;19.10;99.90
12305;DHT22;6215;51.258;9.386;2022-07-22T01:01:51;19.20;99.90
12305;DHT22;6215;51.258;9.386;2022-07-22T01:04:19;19.10;99.90
12305;DHT22;6215;51.258;9.386;2022-07-22T01:06:46;19.10;99.90
12305;DHT22;6215;51.258;9.386;2022-07-22T01:09:13;19.00;99.90
12305;DHT22;6215;51.258;9.386;2022-07-22T01:11:40;19.10;99.90
12305;DHT22;6215;51.258;9.386;2022-07-22T01:14:06;19.00;99.90
12305;DHT22;6215;51.258;9.386;2022-07-22T01:16:33;19.00;99.90
12305;DHT22;6215;51.258;9.386;2022-07-22T01:19:00;18.90;99.90
12305;DHT22;6215;51.258;9.386;2022-07-22T01:21:28;18.80;99.90
12305;DHT22;6215;51.258;9.386;2022-07-22T01:23:54;18.70;99.90
12305;DHT22;6215;51.258;9.386;2022-07-22T01:26:21;18.70;99.90
12305;DHT22;6215;51.258;9.386;2022-07-22T01:28:47;18.60;99.90
12305;DHT22;6215;51.258;9.386;2022-07-22T01:31:14;18.80;99.90
12305;DHT22;6215;51.258;9.386;2022-07-22T01:33:41;18.70;99.90
12305;DHT22;6215;51.258;9.386;2022-07-22T01:36:07;18.60;99.90
12305;DHT22;6215;51.258;9.386;2022-07-22T01:38:36;18.60;99.90
12305;DHT22;6215;51.258;9.386;2022-07-22T01:41:02;18.90;99.90
12305;DHT22;6215;51.258;9.386;2022-07-22T01:43:29;18.70;99.90
12305;DHT22;6215;51.258;9.386;2022-07-22T01:45:56;18.70;99.90
12305;DHT22;6215;51.258;9.386;2022-07-22T01:48:23;18.70;99.90
12305;DHT22;6215;51.258;9.386;2022-07-22T01:50:49;18.80;99.90
12305;DHT22;6215;51.258;9.386;2022-07-22T01:53:16;18.90;99.90
12305;DHT22;6215;51.258;9.386;2022-07-22T01:55:44;18.80;99.90
12305;DHT22;6215;51.258;9.386;2022-07-22T01:58:11;18.80;99.90
12305;DHT22;6215;51.258;9.386;2022-07-22T02:00:37;18.80;99.90
12305;DHT22;6215;51.258;9.386;2022-07-22T02:03:04;18.80;99.90
12305;DHT22;6215;51.258;9.386;2022-07-22T02:05:31;18.80;99.90
12305;DHT22;6215;51.258;9.386;2022-07-22T02:07:59;18.70;99.90
12305;DHT22;6215;51.258;9.386;2022-07-22T02:10:25;18.80;99.90
12305;DHT22;6215;51.258;9.386;2022-07-22T02:12:53;18.90;99.90
12305;DHT22;6215;51.258;9.386;2022-07-22T02:15:20;18.70;99.90
12305;DHT22;6215;51.258;9.386;2022-07-22T02:17:47;18.80;99.90
12305;DHT22;6215;51.258;9.386;2022-07-22T02:20:13;18.80;99.90
12305;DHT22;6215;51.258;9.386;2022-07-22T02:22:40;18.80;99.90
12305;DHT22;6215;51.258;9.386;2022-07-22T02:25:07;18.80;99.90
12305;DHT22;6215;51.258;9.386;2022-07-22T02:27:34;18.80;99.90
12305;DHT22;6215;51.258;9.386;2022-07-22T02:30:02;18.80;99.90
12305;DHT22;6215;51.258;9.386;2022-07-22T02:32:29;18.80;99.90
12305;DHT22;6215;51.258;9.386;2022-07-22T02:34:56;18.80;99.90
12305;DHT22;6215;51.258;9.386;2022-07-22T02:37:23;18.80;99.90
12305;DHT22;6215;51.258;9.386;2022-07-22T02:39:49;18.70;99.90
12305;DHT22;6215;51.258;9.386;2022-07-22T02:42:16;18.60;99.90
12305;DHT22;6215;51.258;9.386;2022-07-22T02:44:42;18.60;99.90
12305;DHT22;6215;51.258;9.386;2022-07-22T02:47:10;18.50;99.90
12305;DHT22;6215;51.258;9.386;2022-07-22T02:49:37;18.50;99.90
12305;DHT22;6215;51.258;9.386;2022-07-22T02:52:04;18.50;99.90
12305;DHT22;6215;51.258;9.386;2022-07-22T02:54:31;18.40;99.90
12305;DHT22;6215;51.258;9.386;2022-07-22T02:56:57;18.30;99.90
12305;DHT22;6215;51.258;9.386;2022-07-22T02:59:24;18.30;99.90
12305;DHT22;6215;51.258;9.386;2022-07-22T03:01:50;18.20;99.90
12305;DHT22;6215;51.258;9.386;2022-07-22T03:04:18;18.20;99.90
12305;DHT22;6215;51.258;9.386;2022-07-22T03:06:45;18.20;99.90
12305;DHT22;6215;51.258;9.386;2022-07-22T03:09:12;18.10;99.90
12305;DHT22;6215;51.258;9.386;2022-07-22T03:11:38;17.90;99.90
12305;DHT22;6215;51.258;9.386;2022-07-22T03:14:05;18.00;99.90
12305;DHT22;6215;51.258;9.386;2022-07-22T03:16:32;17.90;99.90
12305;DHT22;6215;51.258;9.386;2022-07-22T03:18:58;17.90;99.90
12305;DHT22;6215;51.258;9.386;2022-07-22T03:21:26;17.80;99.90
12305;DHT22;6215;51.258;9.386;2022-07-22T03:23:53;17.60;99.90
12305;DHT22;6215;51.258;9.386;2022-07-22T03:26:20;17.80;99.90
12305;DHT22;6215;51.258;9.386;2022-07-22T03:28:47;17.80;99.90
12305;DHT22;6215;51.258;9.386;2022-07-22T03:31:13;17.80;99.90
12305;DHT22;6215;51.258;9.386;2022-07-22T03:33:40;17.70;99.90
12305;DHT22;6215;51.258;9.386;2022-07-22T03:36:07;17.80;99.90
12305;DHT22;6215;51.258;9.386;2022-07-22T03:38:35;17.80;99.90
12305;DHT22;6215;51.258;9.386;2022-07-22T03:41:02;17.80;99.90
12305;DHT22;6215;51.258;9.386;2022-07-22T03:43:28;17.80;99.90
12305;DHT22;6215;51.258;9.386;2022-07-22T03:45:55;17.70;99.90
12305;DHT22;6215;51.258;9.386;2022-07-22T03:48:22;17.80;99.90
12305;DHT22;6215;51.258;9.386;2022-07-22T03:50:48;17.80;99.90
12305;DHT22;6215;51.258;9.386;2022-07-22T03:53:16;17.80;99.90
12305;DHT22;6215;51.258;9.386;2022-07-22T03:55:44;17.90;99.90
12305;DHT22;6215;51.258;9.386;2022-07-22T03:58:11;17.80;99.90
12305;DHT22;6215;51.258;9.386;2022-07-22T04:00:37;17.80;99.90
12305;DHT22;6215;51.258;9.386;2022-07-22T04:03:04;17.80;99.90
12305;DHT22;6215;51.258;9.386;2022-07-22T04:05:31;17.80;99.90
12305;DHT22;6215;51.258;9.386;2022-07-22T04:07:57;17.80;99.90
12305;DHT22;6215;51.258;9.386;2022-07-22T04:10:24;17.70;99.90
12305;DHT22;6215;51.258;9.386;2022-07-22T04:12:52;17.80;99.90
12305;DHT22;6215;51.258;9.386;2022-07-22T04:15:19;17.80;99.90
12305;DHT22;6215;51.258;9.386;2022-07-22T04:17:45;17.90;99.90
12305;DHT22;6215;51.258;9.386;2022-07-22T04:20:12;17.90;99.90
12305;DHT22;6215;51.258;9.386;2022-07-22T04:22:39;17.90;99.90
12305;DHT22;6215;51.258;9.386;2022-07-22T04:25:06;17.90;99.90
12305;DHT22;6215;51.258;9.386;2022-07-22T04:27:33;17.90;99.90
12305;DHT22;6215;51.258;9.386;2022-07-22T04:30:03;17.80;99.90
12305;DHT22;6215;51.258;9.386;2022-07-22T04:32:30;17.80;99.90
12305;DHT22;6215;51.258;9.386;2022-07-22T04:34:56;17.70;99.90
12305;DHT22;6215;51.258;9.386;2022-07-22T04:37:23;17.70;99.90
12305;DHT22;6215;51.258;9.386;2022-07-22T04:39:50;17.70;99.90
12305;DHT22;6215;51.258;9.386;2022-07-22T04:42:16;17.60;99.90
12305;DHT22;6215;51.258;9.386;2022-07-22T04:44:43;17.70;99.90
12305;DHT22;6215;51.258;9.386;2022-07-22T04:47:11;17.80;99.90
12305;DHT22;6215;51.258;9.386;2022-07-22T04:49:38;17.70;99.90
12305;DHT22;6215;51.258;9.386;2022-07-22T04:52:04;17.90;99.90
12305;DHT22;6215;51.258;9.386;2022-07-22T04:54:31;17.80;99.90
12305;DHT22;6215;51.258;9.386;2022-07-22T04:56:58;17.80;99.90
12305;DHT22;6215;51.258;9.386;2022-07-22T04:59:24;17.90;99.90
12305;DHT22;6215;51.258;9.386;2022-07-22T05:01:51;17.90;99.90
12305;DHT22;6215;51.258;9.386;2022-07-22T05:04:19;17.90;99.90
12305;DHT22;6215;51.258;9.386;2022-07-22T05:06:46;17.80;99.90
12305;DHT22;6215;51.258;9.386;2022-07-22T05:09:12;17.80;99.90
12305;DHT22;6215;51.258;9.386;2022-07-22T05:11:39;17.70;99.90
12305;DHT22;6215;51.258;9.386;2022-07-22T05:14:06;17.70;99.90
12305;DHT22;6215;51.258;9.386;2022-07-22T05:16:34;17.60;99.90
12305;DHT22;6215;51.258;9.386;2022-07-22T05:19:02;17.60;99.90
12305;DHT22;6215;51.258;9.386;2022-07-22T05:21:30;17.50;99.90
12305;DHT22;6215;51.258;9.386;2022-07-22T05:23:57;17.50;99.90
12305;DHT22;6215;51.258;9.386;2022-07-22T05:26:23;17.50;99.90
12305;DHT22;6215;51.258;9.386;2022-07-22T05:28:53;17.40;99.90
12305;DHT22;6215;51.258;9.386;2022-07-22T05:31:20;17.60;99.90
12305;DHT22;6215;51.258;9.386;2022-07-22T05:33:47;17.60;99.90
12305;DHT22;6215;51.258;9.386;2022-07-22T05:36:13;17.70;99.90
12305;DHT22;6215;51.258;9.386;2022-07-22T05:38:41;17.70;99.90
12305;DHT22;6215;51.258;9.386;2022-07-22T05:41:08;17.50;99.90
12305;DHT22;6215;51.258;9.386;2022-07-22T05:43:35;17.80;99.90
12305;DHT22;6215;51.258;9.386;2022-07-22T05:46:01;17.80;99.90
12305;DHT22;6215;51.258;9.386;2022-07-22T05:48:28;17.80;99.90
12305;DHT22;6215;51.258;9.386;2022-07-22T05:50:55;17.80;99.90
12305;DHT22;6215;51.258;9.386;2022-07-22T05:53:21;18.10;99.90
12305;DHT22;6215;51.258;9.386;2022-07-22T05:55:49;18.10;99.90
12305;DHT22;6215;51.258;9.386;2022-07-22T05:58:16;18.30;99.90
12305;DHT22;6215;51.258;9.386;2022-07-22T06:00:43;18.40;99.90
12305;DHT22;6215;51.258;9.386;2022-07-22T06:03:09;18.10;99.90
12305;DHT22;6215;51.258;9.386;2022-07-22T06:05:36;18.30;99.90
12305;DHT22;6215;51.258;9.386;2022-07-22T06:08:03;18.10;99.90
12305;DHT22;6215;51.258;9.386;2022-07-22T06:10:30;18.20;99.90
12305;DHT22;6215;51.258;9.386;2022-07-22T06:12:58;18.30;99.90
12305;DHT22;6215;51.258;9.386;2022-07-22T06:15:24;18.30;99.90
12305;DHT22;6215;51.258;9.386;2022-07-22T06:17:51;18.30;99.90
12305;DHT22;6215;51.258;9.386;2022-07-22T06:20:18;18.50;99.90
12305;DHT22;6215;51.258;9.386;2022-07-22T06:22:44;18.50;99.90
12305;DHT22;6215;51.258;9.386;2022-07-22T06:25:11;19.00;99.90
12305;DHT22;6215;51.258;9.386;2022-07-22T06:27:38;19.80;99.90
12305;DHT22;6215;51.258;9.386;2022-07-22T06:30:06;20.30;99.90
12305;DHT22;6215;51.258;9.386;2022-07-22T06:32:33;20.90;99.90
12305;DHT22;6215;51.258;9.386;2022-07-22T06:35:01;21.70;99.90
12305;DHT22;6215;51.258;9.386;2022-07-22T06:37:27;21.30;99.90
12305;DHT22;6215;51.258;9.386;2022-07-22T06:39:54;21.30;99.90
12305;DHT22;6215;51.258;9.386;2022-07-22T06:42:20;21.70;99.90
12305;DHT22;6215;51.258;9.386;2022-07-22T06:44:48;22.00;99.90
12305;DHT22;6215;51.258;9.386;2022-07-22T06:47:16;22.10;99.90
12305;DHT22;6215;51.258;9.386;2022-07-22T06:49:42;21.60;99.90
12305;DHT22;6215;51.258;9.386;2022-07-22T06:52:09;21.40;99.90
12305;DHT22;6215;51.258;9.386;2022-07-22T06:54:36;21.20;99.90
12305;DHT22;6215;51.258;9.386;2022-07-22T06:57:02;21.20;99.90
12305;DHT22;6215;51.258;9.386;2022-07-22T06:59:29;20.90;99.90
12305;DHT22;6215;51.258;9.386;2022-07-22T07:01:55;20.40;99.90
12305;DHT22;6215;51.258;9.386;2022-07-22T07:04:24;20.30;99.90
12305;DHT22;6215;51.258;9.386;2022-07-22T07:06:50;20.30;99.90
12305;DHT22;6215;51.258;9.386;2022-07-22T07:09:17;20.60;99.90
12305;DHT22;6215;51.258;9.386;2022-07-22T07:11:44;20.70;99.90
12305;DHT22;6215;51.258;9.386;2022-07-22T07:14:10;20.80;99.90
12305;DHT22;6215;51.258;9.386;2022-07-22T07:16:37;20.70;99.90
12305;DHT22;6215;51.258;9.386;2022-07-22T07:19:04;20.60;99.90
12305;DHT22;6215;51.258;9.386;2022-07-22T07:21:32;20.60;99.90
12305;DHT22;6215;51.258;9.386;2022-07-22T07:23:58;20.60;99.90
12305;DHT22;6215;51.258;9.386;2022-07-22T07:26:26;20.60;99.90
12305;DHT22;6215;51.258;9.386;2022-07-22T07:28:53;20.60;99.90
12305;DHT22;6215;51.258;9.386;2022-07-22T07:31:19;20.20;99.90
12305;DHT22;6215;51.258;9.386;2022-07-22T07:33:47;20.10;99.90
12305;DHT22;6215;51.258;9.386;2022-07-22T07:36:13;20.20;99.90
12305;DHT22;6215;51.258;9.386;2022-07-22T07:38:41;20.50;99.90
12305;DHT22;6215;51.258;9.386;2022-07-22T07:41:08;20.60;99.90
12305;DHT22;6215;51.258;9.386;2022-07-22T07:43:35;20.60;99.90
12305;DHT22;6215;51.258;9.386;2022-07-22T07:46:01;20.70;99.90
12305;DHT22;6215;51.258;9.386;2022-07-22T07:48:28;20.80;99.90
12305;DHT22;6215;51.258;9.386;2022-07-22T07:50:55;20.60;99.90
12305;DHT22;6215;51.258;9.386;2022-07-22T07:53:21;20.70;99.90
12305;DHT22;6215;51.258;9.386;2022-07-22T07:55:50;20.90;99.90
12305;DHT22;6215;51.258;9.386;2022-07-22T07:58:16;20.90;99.90
12305;DHT22;6215;51.258;9.386;2022-07-22T08:00:43;21.10;99.90
12305;DHT22;6215;51.258;9.386;2022-07-22T08:03:10;20.80;99.90
12305;DHT22;6215;51.258;9.386;2022-07-22T08:05:36;20.90;99.90
12305;DHT22;6215;51.258;9.386;2022-07-22T08:08:04;21.00;99.90
12305;DHT22;6215;51.258;9.386;2022-07-22T08:10:31;21.00;99.90
12305;DHT22;6215;51.258;9.386;2022-07-22T08:12:59;21.20;99.90
12305;DHT22;6215;51.258;9.386;2022-07-22T08:15:26;21.30;99.90
12305;DHT22;6215;51.258;9.386;2022-07-22T08:17:53;21.50;99.90
12305;DHT22;6215;51.258;9.386;2022-07-22T08:20:19;21.30;99.90
12305;DHT22;6215;51.258;9.386;2022-07-22T08:22:46;21.50;99.90
12305;DHT22;6215;51.258;9.386;2022-07-22T08:25:13;21.80;99.90
12305;DHT22;6215;51.258;9.386;2022-07-22T08:27:40;21.80;99.90
12305;DHT22;6215;51.258;9.386;2022-07-22T08:30:08;21.90;99.90
12305;DHT22;6215;51.258;9.386;2022-07-22T08:32:35;22.00;99.90
12305;DHT22;6215;51.258;9.386;2022-07-22T08:35:01;22.30;99.90
12305;DHT22;6215;51.258;9.386;2022-07-22T08:37:28;22.50;99.90
12305;DHT22;6215;51.258;9.386;2022-07-22T08:39:55;22.70;99.90
12305;DHT22;6215;51.258;9.386;2022-07-22T08:42:23;22.90;99.90
12305;DHT22;6215;51.258;9.386;2022-07-22T08:44:51;23.20;99.90
12305;DHT22;6215;51.258;9.386;2022-07-22T08:47:21;23.30;99.90
12305;DHT22;6215;51.258;9.386;2022-07-22T08:49:48;22.90;99.90
12305;DHT22;6215;51.258;9.386;2022-07-22T08:52:15;22.40;99.90
12305;DHT22;6215;51.258;9.386;2022-07-22T08:54:41;22.30;99.90
12305;DHT22;6215;51.258;9.386;2022-07-22T08:57:08;22.40;99.90
12305;DHT22;6215;51.258;9.386;2022-07-22T08:59:48;22.40;99.90
12305;DHT22;6215;51.258;9.386;2022-07-22T09:02:14;22.40;99.90
12305;DHT22;6215;51.258;9.386;2022-07-22T09:04:56;22.10;99.90
12305;DHT22;6215;51.258;9.386;2022-07-22T09:07:23;22.30;99.90
12305;DHT22;6215;51.258;9.386;2022-07-22T09:09:50;22.40;99.90
12305;DHT22;6215;51.258;9.386;2022-07-22T09:12:17;22.40;99.90
12305;DHT22;6215;51.258;9.386;2022-07-22T09:14:44;22.40;99.90
12305;DHT22;6215;51.258;9.386;2022-07-22T09:17:24;22.20;99.90
12305;DHT22;6215;51.258;9.386;2022-07-22T09:19:50;22.20;99.90
12305;DHT22;6215;51.258;9.386;2022-07-22T09:22:31;22.10;99.90
12305;DHT22;6215;51.258;9.386;2022-07-22T09:24:58;22.10;99.90
12305;DHT22;6215;51.258;9.386;2022-07-22T09:27:25;22.00;99.90
12305;DHT22;6215;51.258;9.386;2022-07-22T09:29:52;22.00;99.90
12305;DHT22;6215;51.258;9.386;2022-07-22T09:32:21;22.40;99.90
12305;DHT22;6215;51.258;9.386;2022-07-22T09:34:48;22.00;99.90
12305;DHT22;6215;51.258;9.386;2022-07-22T09:37:15;21.90;99.90
12305;DHT22;6215;51.258;9.386;2022-07-22T09:39:43;21.90;99.90
12305;DHT22;6215;51.258;9.386;2022-07-22T09:42:09;22.10;99.90
12305;DHT22;6215;51.258;9.386;2022-07-22T09:44:36;22.20;99.90
12305;DHT22;6215;51.258;9.386;2022-07-22T09:47:02;22.30;99.90
12305;DHT22;6215;51.258;9.386;2022-07-22T09:49:30;22.30;99.90
12305;DHT22;6215;51.258;9.386;2022-07-22T09:51:56;22.30;99.90
12305;DHT22;6215;51.258;9.386;2022-07-22T09:54:23;22.40;99.90
12305;DHT22;6215;51.258;9.386;2022-07-22T09:56:52;22.50;99.90
12305;DHT22;6215;51.258;9.386;2022-07-22T09:59:19;22.50;99.90
12305;DHT22;6215;51.258;9.386;2022-07-22T10:01:46;22.50;99.90
12305;DHT22;6215;51.258;9.386;2022-07-22T10:04:13;22.60;99.90
12305;DHT22;6215;51.258;9.386;2022-07-22T10:06:40;22.60;99.90
12305;DHT22;6215;51.258;9.386;2022-07-22T10:09:08;22.60;99.90
12305;DHT22;6215;51.258;9.386;2022-07-22T10:11:35;22.50;99.90
12305;DHT22;6215;51.258;9.386;2022-07-22T10:14:04;22.40;99.90
12305;DHT22;6215;51.258;9.386;2022-07-22T10:16:31;22.50;99.90
12305;DHT22;6215;51.258;9.386;2022-07-22T10:18:57;22.30;99.90
12305;DHT22;6215;51.258;9.386;2022-07-22T10:21:30;21.90;99.90
12305;DHT22;6215;51.258;9.386;2022-07-22T10:24:07;21.70;99.90
12305;DHT22;6215;51.258;9.386;2022-07-22T10:26:45;21.70;99.90
12305;DHT22;6215;51.258;9.386;2022-07-22T10:35:18;21.80;99.90
12305;DHT22;6215;51.258;9.386;2022-07-22T10:37:41;22.10;99.90
12305;DHT22;6215;51.258;9.386;2022-07-22T10:40:09;22.30;99.90
12305;DHT22;6215;51.258;9.386;2022-07-22T10:45:37;22.50;99.90
12305;DHT22;6215;51.258;9.386;2022-07-22T10:48:05;22.60;99.90
12305;DHT22;6215;51.258;9.386;2022-07-22T10:53:24;22.70;99.90
12305;DHT22;6215;51.258;9.386;2022-07-22T10:55:58;22.50;99.90
12305;DHT22;6215;51.258;9.386;2022-07-22T10:58:39;22.40;99.90
12305;DHT22;6215;51.258;9.386;2022-07-22T11:01:07;22.50;99.90
12305;DHT22;6215;51.258;9.386;2022-07-22T11:03:34;22.60;99.90
12305;DHT22;6215;51.258;9.386;2022-07-22T11:06:12;22.40;99.90
12305;DHT22;6215;51.258;9.386;2022-07-22T11:08:40;22.60;99.90
12305;DHT22;6215;51.258;9.386;2022-07-22T11:11:06;22.90;99.90
12305;DHT22;6215;51.258;9.386;2022-07-22T11:13:33;22.90;99.90
12305;DHT22;6215;51.258;9.386;2022-07-22T11:16:12;22.90;99.90
12305;DHT22;6215;51.258;9.386;2022-07-22T11:18:46;22.80;99.90
12305;DHT22;6215;51.258;9.386;2022-07-22T11:21:13;22.80;99.90
12305;DHT22;6215;51.258;9.386;2022-07-22T11:23:42;22.60;99.90
12305;DHT22;6215;51.258;9.386;2022-07-22T11:26:09;22.60;99.90
12305;DHT22;6215;51.258;9.386;2022-07-22T11:28:38;22.60;99.90
12305;DHT22;6215;51.258;9.386;2022-07-22T11:31:05;22.80;99.90
12305;DHT22;6215;51.258;9.386;2022-07-22T11:33:32;22.80;99.90
12305;DHT22;6215;51.258;9.386;2022-07-22T11:36:03;23.10;99.90
12305;DHT22;6215;51.258;9.386;2022-07-22T11:38:39;23.30;99.90
12305;DHT22;6215;51.258;9.386;2022-07-22T11:41:07;23.50;99.90
12305;DHT22;6215;51.258;9.386;2022-07-22T11:43:38;23.50;99.90
12305;DHT22;6215;51.258;9.386;2022-07-22T11:46:04;23.30;99.90
12305;DHT22;6215;51.258;9.386;2022-07-22T11:48:31;22.90;99.90
12305;DHT22;6215;51.258;9.386;2022-07-22T11:50:58;22.80;99.90
12305;DHT22;6215;51.258;9.386;2022-07-22T11:53:26;23.00;99.90
12305;DHT22;6215;51.258;9.386;2022-07-22T11:55:55;23.30;99.90
12305;DHT22;6215;51.258;9.386;2022-07-22T11:58:34;23.70;99.90
12305;DHT22;6215;51.258;9.386;2022-07-22T12:01:00;24.00;99.90
12305;DHT22;6215;51.258;9.386;2022-07-22T12:03:27;24.20;99.90
12305;DHT22;6215;51.258;9.386;2022-07-22T12:05:54;24.50;99.90
12305;DHT22;6215;51.258;9.386;2022-07-22T12:08:21;24.70;99.90
12305;DHT22;6215;51.258;9.386;2022-07-22T12:10:48;25.00;99.90
12305;DHT22;6215;51.258;9.386;2022-07-22T12:13:14;25.20;99.90
12305;DHT22;6215;51.258;9.386;2022-07-22T12:15:43;24.90;99.90
12305;DHT22;6215;51.258;9.386;2022-07-22T12:18:19;25.20;99.90
12305;DHT22;6215;51.258;9.386;2022-07-22T12:20:47;25.40;99.90
12305;DHT22;6215;51.258;9.386;2022-07-22T12:23:14;25.50;99.90
12305;DHT22;6215;51.258;9.386;2022-07-22T12:25:51;25.40;99.90
12305;DHT22;6215;51.258;9.386;2022-07-22T12:28:18;25.20;99.90
12305;DHT22;6215;51.258;9.386;2022-07-22T12:30:46;25.20;99.90
12305;DHT22;6215;51.258;9.386;2022-07-22T12:33:13;25.00;99.90
12305;DHT22;6215;51.258;9.386;2022-07-22T12:35:40;24.60;99.90
12305;DHT22;6215;51.258;9.386;2022-07-22T12:38:08;24.40;99.90
12305;DHT22;6215;51.258;9.386;2022-07-22T12:40:35;24.20;99.90
12305;DHT22;6215;51.258;9.386;2022-07-22T12:43:02;24.00;99.90
12305;DHT22;6215;51.258;9.386;2022-07-22T12:45:30;23.60;99.90
12305;DHT22;6215;51.258;9.386;2022-07-22T12:48:05;23.40;99.90
12305;DHT22;6215;51.258;9.386;2022-07-22T12:50:39;23.50;99.90
12305;DHT22;6215;51.258;9.386;2022-07-22T12:53:15;23.40;99.90
12305;DHT22;6215;51.258;9.386;2022-07-22T12:55:46;23.20;99.90
12305;DHT22;6215;51.258;9.386;2022-07-22T12:58:16;23.30;99.90
12305;DHT22;6215;51.258;9.386;2022-07-22T13:00:54;23.70;99.90
12305;DHT22;6215;51.258;9.386;2022-07-22T13:03:22;23.70;99.90
12305;DHT22;6215;51.258;9.386;2022-07-22T13:05:51;24.00;99.90
12305;DHT22;6215;51.258;9.386;2022-07-22T13:08:19;24.30;99.90
12305;DHT22;6215;51.258;9.386;2022-07-22T13:10:51;24.50;99.90
12305;DHT22;6215;51.258;9.386;2022-07-22T13:13:20;24.20;99.90
12305;DHT22;6215;51.258;9.386;2022-07-22T13:15:54;24.20;99.90
12305;DHT22;6215;51.258;9.386;2022-07-22T13:18:32;23.90;99.90
12305;DHT22;6215;51.258;9.386;2022-07-22T13:20:58;24.20;99.90
12305;DHT22;6215;51.258;9.386;2022-07-22T13:23:28;24.40;99.90
12305;DHT22;6215;51.258;9.386;2022-07-22T13:25:56;24.60;99.90
12305;DHT22;6215;51.258;9.386;2022-07-22T13:28:26;25.00;99.90
12305;DHT22;6215;51.258;9.386;2022-07-22T13:30:53;25.00;99.90
12305;DHT22;6215;51.258;9.386;2022-07-22T13:33:20;25.00;99.90
12305;DHT22;6215;51.258;9.386;2022-07-22T13:35:53;25.00;99.90
12305;DHT22;6215;51.258;9.386;2022-07-22T13:38:39;24.60;99.90
12305;DHT22;6215;51.258;9.386;2022-07-22T13:41:48;24.70;99.90
12305;DHT22;6215;51.258;9.386;2022-07-22T13:44:21;25.00;99.90
12305;DHT22;6215;51.258;9.386;2022-07-22T13:47:01;25.30;99.90
12305;DHT22;6215;51.258;9.386;2022-07-22T13:49:28;25.50;99.90
12305;DHT22;6215;51.258;9.386;2022-07-22T13:51:54;25.80;99.90
12305;DHT22;6215;51.258;9.386;2022-07-22T13:54:21;26.10;99.90
12305;DHT22;6215;51.258;9.386;2022-07-22T13:56:48;26.40;99.90
12305;DHT22;6215;51.258;9.386;2022-07-22T13:59:15;26.30;99.90
12305;DHT22;6215;51.258;9.386;2022-07-22T14:01:42;26.40;99.90
12305;DHT22;6215;51.258;9.386;2022-07-22T14:04:10;26.40;99.90
12305;DHT22;6215;51.258;9.386;2022-07-22T14:06:37;26.40;99.90
12305;DHT22;6215;51.258;9.386;2022-07-22T14:09:04;26.10;99.90
12305;DHT22;6215;51.258;9.386;2022-07-22T14:11:31;26.20;99.90
12305;DHT22;6215;51.258;9.386;2022-07-22T14:13:58;26.20;99.90
12305;DHT22;6215;51.258;9.386;2022-07-22T14:16:24;26.40;99.90
12305;DHT22;6215;51.258;9.386;2022-07-22T14:19:00;26.40;99.90
12305;DHT22;6215;51.258;9.386;2022-07-22T14:21:29;26.30;99.90
12305;DHT22;6215;51.258;9.386;2022-07-22T14:23:55;26.00;99.90
12305;DHT22;6215;51.258;9.386;2022-07-22T14:26:22;25.60;99.90
12305;DHT22;6215;51.258;9.386;2022-07-22T14:28:49;25.20;99.90
12305;DHT22;6215;51.258;9.386;2022-07-22T14:31:16;25.00;99.90
12305;DHT22;6215;51.258;9.386;2022-07-22T14:33:42;25.20;99.90
12305;DHT22;6215;51.258;9.386;2022-07-22T14:36:09;25.50;99.90
12305;DHT22;6215;51.258;9.386;2022-07-22T14:38:37;25.60;99.90
12305;DHT22;6215;51.258;9.386;2022-07-22T14:41:04;25.50;99.90
12305;DHT22;6215;51.258;9.386;2022-07-22T14:43:32;25.60;99.90
12305;DHT22;6215;51.258;9.386;2022-07-22T14:45:59;25.80;99.90
12305;DHT22;6215;51.258;9.386;2022-07-22T14:48:26;25.80;99.90
12305;DHT22;6215;51.258;9.386;2022-07-22T14:50:52;25.60;99.90
12305;DHT22;6215;51.258;9.386;2022-07-22T14:53:19;25.40;99.90
12305;DHT22;6215;51.258;9.386;2022-07-22T14:55:47;25.10;99.90
12305;DHT22;6215;51.258;9.386;2022-07-22T14:58:14;25.20;99.90
12305;DHT22;6215;51.258;9.386;2022-07-22T15:00:41;24.90;99.90
12305;DHT22;6215;51.258;9.386;2022-07-22T15:03:07;25.30;99.90
12305;DHT22;6215;51.258;9.386;2022-07-22T15:05:37;25.30;99.90
12305;DHT22;6215;51.258;9.386;2022-07-22T15:08:04;25.20;99.90
12305;DHT22;6215;51.258;9.386;2022-07-22T15:10:31;25.40;99.90
12305;DHT22;6215;51.258;9.386;2022-07-22T15:12:59;25.20;99.90
12305;DHT22;6215;51.258;9.386;2022-07-22T15:15:43;25.00;99.90
12305;DHT22;6215;51.258;9.386;2022-07-22T15:18:10;25.10;99.90
12305;DHT22;6215;51.258;9.386;2022-07-22T15:20:37;25.30;99.90
12305;DHT22;6215;51.258;9.386;2022-07-22T15:23:07;25.50;99.90
12305;DHT22;6215;51.258;9.386;2022-07-22T15:25:34;25.10;99.90
12305;DHT22;6215;51.258;9.386;2022-07-22T15:28:05;24.80;99.90
12305;DHT22;6215;51.258;9.386;2022-07-22T15:30:32;25.00;99.90
12305;DHT22;6215;51.258;9.386;2022-07-22T15:33:00;25.20;99.90
12305;DHT22;6215;51.258;9.386;2022-07-22T15:35:27;25.10;99.90
12305;DHT22;6215;51.258;9.386;2022-07-22T15:37:54;24.90;99.90
12305;DHT22;6215;51.258;9.386;2022-07-22T15:40:20;24.70;99.90
12305;DHT22;6215;51.258;9.386;2022-07-22T15:42:49;24.70;99.90
12305;DHT22;6215;51.258;9.386;2022-07-22T15:45:17;24.70;99.90
12305;DHT22;6215;51.258;9.386;2022-07-22T15:47:43;24.30;99.90
12305;DHT22;6215;51.258;9.386;2022-07-22T15:50:10;24.50;99.90
12305;DHT22;6215;51.258;9.386;2022-07-22T15:52:36;24.90;99.90
12305;DHT22;6215;51.258;9.386;2022-07-22T15:55:03;25.10;99.90
12305;DHT22;6215;51.258;9.386;2022-07-22T15:57:30;25.10;99.90
12305;DHT22;6215;51.258;9.386;2022-07-22T16:00:14;25.10;99.90